Basking Ridge, New Jersey
Current Conditions -  °F | °C
As of 11:53 PM on Friday 21 Nov 2014 (Local Time) from KSMQ Reporting Station
Clear Clear  
Wind Chill: 18°   Ceiling: Unl
Heat Index: 18°   Visibility: 10mi
Dew Point: 11°   Wind: 0mph
Humidity: 74%   Direction: NA
Pressure: 30.5"   Gusts: NA
Location:  40.71°N, 74.55°W
Report Text: KSMQ 220453Z AUTO 00000KT 10SM CLR M08/M12 A3050 RMK AO2 SLP331 T10781117 400281083
Loading
Personal Weather Stations






























Interactive Weather Map New forecast layout! Learn more

10-Day Weather Forecast

Advertisements
Track Severe Weather on mobile